Time;durP1;ratioP1;P1;durP2;ratioP2;P2;SDS_P1;SDS_P2;PMS_P1;PMS_P2;Temp;Humidity;BMP_temperature;BMP_pressure;BME280_temperature;BME280_humidity;BME280_pressure;Samples;Min_cycle;Max_cycle;Signal;HPM_P1;HPM_P2
2023/09/25 00:01:17;;;;;;;0.90;0.77;;;;;;;14.11;81.98;96208.19;4362118;32;20192;-59
2023/09/25 00:03:42;;;;;;;0.83;0.83;;;;;;;13.97;79.68;96208.16;4367971;32;20193;-59
2023/09/25 00:06:08;;;;;;;0.50;0.50;;;;;;;14.23;83.41;96205.03;4354429;32;20212;-59
2023/09/25 00:08:34;;;;;;;0.60;0.60;;;;;;;14.48;81.65;96204.63;4361623;32;20192;-60
2023/09/25 00:11:00;;;;;;;0.40;0.40;;;;;;;14.55;83.95;96201.56;4363419;32;20227;-59
2023/09/25 00:13:26;;;;;;;0.87;0.80;;;;;;;14.63;83.18;96200.84;4362534;32;20196;-60
2023/09/25 00:15:51;;;;;;;0.83;0.83;;;;;;;14.75;82.92;96188.59;4376113;32;20252;-59
2023/09/25 00:18:16;;;;;;;0.50;0.50;;;;;;;14.85;83.06;96195.59;4376595;32;20197;-59
2023/09/25 00:20:42;;;;;;;0.77;0.77;;;;;;;14.81;81.11;96188.47;4364048;32;20196;-59
2023/09/25 00:23:08;;;;;;;0.40;0.40;;;;;;;14.69;81.66;96195.13;4378766;32;20208;-59
2023/09/25 00:25:33;;;;;;;0.43;0.43;;;;;;;14.37;80.30;96197.84;4378578;32;20193;-58
2023/09/25 00:28:01;;;;;;;0.67;0.67;;;;;;;14.44;83.38;96190.28;4378842;32;20212;-59
2023/09/25 00:30:26;;;;;;;1.07;0.93;;;;;;;14.27;82.33;96190.03;4367677;32;20215;-59
2023/09/25 00:32:52;;;;;;;0.70;0.70;;;;;;;14.13;81.75;96186.56;4378083;32;20347;-59
2023/09/25 00:35:19;;;;;;;1.00;0.97;;;;;;;14.23;81.11;96197.84;4376945;32;20276;-60
2023/09/25 00:37:45;;;;;;;0.63;0.63;;;;;;;14.38;81.59;96189.53;4378511;32;20188;-59
2023/09/25 00:40:14;;;;;;;0.30;0.30;;;;;;;14.18;81.43;96191.78;4378685;32;20245;-59
2023/09/25 00:42:41;;;;;;;0.50;0.50;;;;;;;14.07;79.61;96180.50;4364347;32;20189;-59
2023/09/25 00:45:08;;;;;;;1.23;1.20;;;;;;;13.77;81.80;96193.28;4363697;32;20185;-59
2023/09/25 00:47:33;;;;;;;0.90;0.90;;;;;;;14.16;83.58;96191.28;4377706;32;20185;-60
2023/09/25 00:49:58;;;;;;;0.40;0.40;;;;;;;14.08;83.14;96188.22;4379737;32;20222;-60
2023/09/25 00:52:25;;;;;;;0.80;0.80;;;;;;;14.00;81.21;96188.88;4362578;32;20189;-60
2023/09/25 00:54:51;;;;;;;0.50;0.50;;;;;;;13.97;83.17;96180.69;4370317;32;20204;-60
2023/09/25 00:57:17;;;;;;;0.50;0.50;;;;;;;13.91;83.16;96185.31;4377579;32;20248;-59
2023/09/25 00:59:43;;;;;;;0.47;0.47;;;;;;;13.69;82.33;96188.63;4371119;32;20236;-60
2023/09/25 01:02:10;;;;;;;0.30;0.30;;;;;;;13.98;83.01;96188.38;4364223;32;20195;-60
2023/09/25 01:04:36;;;;;;;0.83;0.83;;;;;;;13.95;82.62;96188.97;4364280;32;20289;-60
2023/09/25 01:07:02;;;;;;;0.57;0.57;;;;;;;13.96;82.94;96189.75;4364178;32;20188;-62
2023/09/25 01:09:27;;;;;;;1.03;0.90;;;;;;;13.68;83.27;96192.38;4379202;32;20219;-60
2023/09/25 01:11:53;;;;;;;0.73;0.70;;;;;;;13.73;81.58;96189.59;4377677;32;20211;-59
2023/09/25 01:14:18;;;;;;;0.50;0.50;;;;;;;14.01;83.07;96187.00;4364250;32;20204;-60
2023/09/25 01:16:43;;;;;;;0.57;0.57;;;;;;;13.97;83.20;96192.13;4372910;32;20246;-60
2023/09/25 01:19:09;;;;;;;0.60;0.60;;;;;;;13.69;84.07;96185.94;4369845;32;20270;-60
2023/09/25 01:21:36;;;;;;;0.50;0.50;;;;;;;13.64;81.71;96194.03;4376268;32;20309;-61
2023/09/25 01:24:02;;;;;;;1.50;0.60;;;;;;;13.95;82.98;96198.84;4379229;32;20177;-59
2023/09/25 01:26:28;;;;;;;0.57;0.57;;;;;;;14.00;82.66;96190.75;4376288;32;20189;-60
2023/09/25 01:28:53;;;;;;;0.50;0.50;;;;;;;13.71;81.67;96191.78;4377422;32;20250;-60
2023/09/25 01:31:18;;;;;;;0.73;0.73;;;;;;;13.77;82.41;96195.94;4377487;32;20210;-60
2023/09/25 01:33:44;;;;;;;0.20;0.20;;;;;;;13.86;82.31;96197.94;4358472;32;20233;-59
2023/09/25 01:36:11;;;;;;;0.10;0.10;;;;;;;13.93;81.47;96193.00;4363759;32;20189;-59
2023/09/25 01:38:37;;;;;;;0.80;0.80;;;;;;;13.81;82.76;96193.47;4367792;32;20227;-59
2023/09/25 01:41:02;;;;;;;0.57;0.57;;;;;;;13.94;83.32;96189.25;4377317;32;20268;-60
2023/09/25 01:43:28;;;;;;;1.30;1.00;;;;;;;13.53;81.40;96203.25;4378865;32;20227;-59
2023/09/25 01:45:53;;;;;;;0.60;0.60;;;;;;;14.00;84.35;96188.09;4377063;32;20196;-59
2023/09/25 01:48:18;;;;;;;0.60;0.60;;;;;;;14.21;82.47;96192.00;4364188;32;20185;-59
2023/09/25 01:50:44;;;;;;;0.70;0.70;;;;;;;14.37;82.02;96185.28;4364106;32;20189;-59
2023/09/25 01:53:09;;;;;;;0.70;0.70;;;;;;;14.38;81.46;96183.41;4377377;32;20189;-59
2023/09/25 01:55:36;;;;;;;0.27;0.27;;;;;;;14.02;80.56;96184.06;4362687;32;20226;-59
2023/09/25 01:58:03;;;;;;;0.83;0.83;;;;;;;13.98;81.82;96182.25;4377837;32;20188;-59
2023/09/25 02:00:28;;;;;;;1.00;0.90;;;;;;;14.12;80.99;96171.62;4377387;32;20196;-60
2023/09/25 02:02:53;;;;;;;0.20;0.20;;;;;;;14.11;79.70;96176.19;4377130;32;20216;-59
2023/09/25 02:05:19;;;;;;;0.60;0.60;;;;;;;13.85;80.45;96172.34;4376770;32;20207;-59
2023/09/25 02:07:44;;;;;;;0.73;0.40;;;;;;;13.84;80.10;96165.44;4375800;32;20202;-59
2023/09/25 02:10:09;;;;;;;0.37;0.37;;;;;;;13.72;81.78;96158.69;4363434;32;20201;-59
2023/09/25 02:12:35;;;;;;;0.67;0.67;;;;;;;13.95;81.96;96156.97;4377135;32;20199;-59
2023/09/25 02:15:03;;;;;;;3.90;1.20;;;;;;;14.06;81.18;96154.91;4379050;32;20184;-59
2023/09/25 02:17:29;;;;;;;0.17;0.17;;;;;;;13.56;82.80;96151.22;4375820;32;20200;-59
2023/09/25 02:19:56;;;;;;;0.70;0.43;;;;;;;13.53;81.00;96152.59;4376477;32;20184;-59
2023/09/25 02:22:22;;;;;;;0.50;0.50;;;;;;;13.91;83.41;96150.66;4376878;32;20193;-59
2023/09/25 02:24:47;;;;;;;0.93;0.77;;;;;;;13.76;81.30;96148.22;4375843;32;20172;-60
2023/09/25 02:27:12;;;;;;;0.90;0.50;;;;;;;13.36;82.95;96147.00;4375571;32;20188;-59
2023/09/25 02:29:38;;;;;;;0.73;0.73;;;;;;;13.74;83.42;96139.72;4362547;32;20209;-59
2023/09/25 02:32:03;;;;;;;0.57;0.57;;;;;;;13.51;82.29;96136.09;4376778;32;20184;-59
2023/09/25 02:34:28;;;;;;;0.77;0.77;;;;;;;13.58;81.90;96136.53;4365047;32;20212;-59
2023/09/25 02:36:54;;;;;;;0.30;0.30;;;;;;;14.09;84.00;96130.31;4375291;32;20185;-59
2023/09/25 02:39:19;;;;;;;0.40;0.33;;;;;;;13.72;81.98;96132.00;4372252;32;20196;-60
2023/09/25 02:41:44;;;;;;;2.90;1.27;;;;;;;13.58;81.15;96131.19;4371912;32;20215;-59
2023/09/25 02:44:10;;;;;;;0.70;0.70;;;;;;;13.68;81.92;96128.37;4376232;32;20181;-59
2023/09/25 02:46:35;;;;;;;5.10;0.97;;;;;;;13.59;82.46;96126.66;4376532;32;20232;-59
2023/09/25 02:49:01;;;;;;;0.50;0.50;;;;;;;13.59;84.07;96123.97;4378278;32;20196;-59
2023/09/25 02:51:27;;;;;;;0.67;0.67;;;;;;;13.91;83.45;96128.50;4376606;32;20204;-59
2023/09/25 02:53:52;;;;;;;11.60;0.70;;;;;;;13.89;81.23;96120.00;4376078;32;20307;-60
2023/09/25 02:56:18;;;;;;;0.33;0.33;;;;;;;13.90;82.25;96124.25;4375869;32;20263;-59
2023/09/25 02:58:44;;;;;;;0.47;0.47;;;;;;;14.20;84.09;96120.22;4374706;32;20264;-60
2023/09/25 03:01:09;;;;;;;0.43;0.43;;;;;;;13.75;80.11;96123.44;4375832;32;20207;-60
2023/09/25 03:03:34;;;;;;;0.73;0.73;;;;;;;13.70;81.79;96115.53;4376064;32;20198;-60
2023/09/25 03:06:00;;;;;;;0.40;0.40;;;;;;;13.89;83.02;96109.34;4378621;32;20172;-59
2023/09/25 03:08:25;;;;;;;0.70;0.70;;;;;;;13.79;82.62;96112.97;4376689;32;20200;-59
2023/09/25 03:10:51;;;;;;;7.87;0.97;;;;;;;13.63;81.37;96111.66;4364525;32;20181;-60
2023/09/25 03:13:16;;;;;;;0.80;0.80;;;;;;;13.77;78.26;96107.13;4376341;32;20220;-60
2023/09/25 03:15:41;;;;;;;0.63;0.63;;;;;;;13.69;82.94;96111.28;4374652;32;20230;-60
2023/09/25 03:18:07;;;;;;;0.60;0.60;;;;;;;13.73;82.11;96106.94;4374773;32;20226;-60
2023/09/25 03:20:33;;;;;;;0.70;0.70;;;;;;;13.72;82.80;96105.34;4375220;32;20234;-62
2023/09/25 03:22:58;;;;;;;0.80;0.80;;;;;;;13.91;82.92;96096.50;4366212;32;20228;-59
2023/09/25 03:25:23;;;;;;;0.33;0.33;;;;;;;13.70;81.24;96101.41;4375758;32;20186;-60
2023/09/25 03:27:49;;;;;;;0.40;0.40;;;;;;;13.47;81.92;96103.12;4362214;32;20180;-60
2023/09/25 03:30:16;;;;;;;0.40;0.40;;;;;;;13.47;83.00;96095.12;4362779;32;20205;-60
2023/09/25 03:32:44;;;;;;;1.43;0.67;;;;;;;13.55;84.02;96099.00;4376357;32;20215;-59
2023/09/25 03:35:10;;;;;;;0.53;0.53;;;;;;;13.70;81.04;96101.41;4375994;32;20272;-59
2023/09/25 03:37:36;;;;;;;0.47;0.47;;;;;;;13.59;82.35;96106.13;4374508;32;20191;-61
2023/09/25 03:40:03;;;;;;;0.60;0.60;;;;;;;13.81;83.32;96102.81;4366141;32;20185;-60
2023/09/25 03:42:28;;;;;;;0.30;0.30;;;;;;;13.70;81.63;96099.53;4375526;32;20283;-59
2023/09/25 03:44:53;;;;;;;0.47;0.47;;;;;;;13.49;82.64;96089.50;4375362;32;20176;-60
2023/09/25 03:47:19;;;;;;;0.67;0.67;;;;;;;13.29;81.29;96101.28;4374770;32;20184;-59
2023/09/25 03:49:44;;;;;;;1.10;1.10;;;;;;;13.44;81.64;96093.06;4362609;32;20230;-60
2023/09/25 03:52:10;;;;;;;0.53;0.53;;;;;;;13.38;80.20;96094.22;4375704;32;20184;-60
2023/09/25 03:54:35;;;;;;;0.87;0.87;;;;;;;13.32;84.66;96098.03;4377205;32;20250;-60
2023/09/25 03:57:01;;;;;;;0.40;0.40;;;;;;;13.24;81.75;96098.72;4380979;32;20181;-59
2023/09/25 03:59:26;;;;;;;0.53;0.53;;;;;;;13.27;83.30;96103.47;4378677;32;20180;-59
2023/09/25 04:01:51;;;;;;;0.50;0.50;;;;;;;13.29;83.05;96099.44;4378804;32;20246;-60
2023/09/25 04:04:16;;;;;;;0.60;0.60;;;;;;;13.30;83.50;96092.22;4378114;32;20305;-60
2023/09/25 04:06:42;;;;;;;0.60;0.60;;;;;;;13.09;82.63;96097.03;4378832;32;20173;-60
2023/09/25 04:09:07;;;;;;;1.17;0.70;;;;;;;13.28;83.88;96091.72;4378855;32;20185;-60
2023/09/25 04:11:33;;;;;;;0.53;0.53;;;;;;;13.37;83.11;96090.75;4377390;32;20187;-60
2023/09/25 04:14:00;;;;;;;1.70;0.90;;;;;;;13.39;81.81;96085.13;4379666;32;20222;-60
2023/09/25 04:16:27;;;;;;;0.97;0.97;;;;;;;13.22;82.38;96088.34;4377264;32;20181;-60
2023/09/25 04:18:53;;;;;;;0.23;0.23;;;;;;;13.60;84.20;96078.38;4377223;32;20227;-60
2023/09/25 04:21:19;;;;;;;0.53;0.53;;;;;;;13.75;84.04;96079.97;4378499;32;20196;-60
2023/09/25 04:23:44;;;;;;;0.30;0.30;;;;;;;13.44;82.52;96077.06;4378230;32;20185;-59
2023/09/25 04:26:11;;;;;;;0.87;0.87;;;;;;;13.44;82.21;96077.06;4377038;32;20226;-60
2023/09/25 04:28:38;;;;;;;0.50;0.50;;;;;;;13.34;83.48;96072.66;4378178;32;20220;-59
2023/09/25 04:31:07;;;;;;;0.67;0.60;;;;;;;13.18;84.83;96070.56;4378229;32;20188;-61
2023/09/25 04:33:33;;;;;;;4.47;1.10;;;;;;;13.36;84.67;96067.84;4364727;32;20196;-62
2023/09/25 04:35:59;;;;;;;0.77;0.77;;;;;;;13.34;84.59;96072.66;4370020;32;20193;-60
2023/09/25 04:38:26;;;;;;;0.50;0.50;;;;;;;13.47;85.03;96071.16;4377607;32;20181;-60
2023/09/25 04:40:51;;;;;;;0.53;0.53;;;;;;;13.40;84.72;96066.19;4367689;32;20205;-60
2023/09/25 04:43:17;;;;;;;0.83;0.83;;;;;;;13.41;84.82;96077.63;4376868;32;20265;-59
2023/09/25 04:45:44;;;;;;;0.90;0.90;;;;;;;13.19;84.25;96080.12;4376598;32;20215;-59
2023/09/25 04:48:09;;;;;;;2.00;1.20;;;;;;;13.12;84.31;96071.66;4385036;32;20184;-59
2023/09/25 04:50:36;;;;;;;2.67;1.00;;;;;;;13.16;84.01;96070.84;4380187;32;20193;-59
2023/09/25 04:53:02;;;;;;;0.87;0.87;;;;;;;13.29;85.16;96069.31;4388035;32;20194;-60
2023/09/25 04:55:27;;;;;;;1.27;1.00;;;;;;;13.43;83.32;96070.13;4376215;32;20189;-59
2023/09/25 04:57:53;;;;;;;2.50;1.27;;;;;;;13.12;83.87;96079.66;4378203;32;20203;-61
2023/09/25 05:00:21;;;;;;;2.00;0.80;;;;;;;13.25;84.16;96074.44;4381030;32;20192;-59
2023/09/25 05:02:48;;;;;;;1.60;0.80;;;;;;;13.43;85.67;96064.03;4368385;32;20280;-60
2023/09/25 05:05:14;;;;;;;0.87;0.87;;;;;;;13.12;84.27;96077.00;4367663;32;20211;-60
2023/09/25 05:07:44;;;;;;;0.97;0.97;;;;;;;13.35;85.10;96076.91;4377825;32;20297;-60
2023/09/25 05:10:11;;;;;;;0.73;0.73;;;;;;;13.32;81.96;96076.72;4374328;32;20193;-59
2023/09/25 05:12:38;;;;;;;0.97;0.97;;;;;;;13.12;83.22;96080.47;4380321;32;20176;-60
2023/09/25 05:15:03;;;;;;;1.67;0.97;;;;;;;13.20;83.87;96081.72;4371265;32;20184;-60
2023/09/25 05:17:29;;;;;;;0.83;0.83;;;;;;;13.02;84.41;96077.97;4376135;32;20185;-60
2023/09/25 05:19:54;;;;;;;1.07;0.97;;;;;;;13.03;85.09;96077.69;4389859;32;20185;-60
2023/09/25 05:22:19;;;;;;;0.60;0.60;;;;;;;13.11;83.77;96076.22;4390119;32;20241;-60
2023/09/25 05:24:45;;;;;;;1.07;1.00;;;;;;;12.97;85.80;96078.81;4386557;32;20199;-60
2023/09/25 05:27:10;;;;;;;0.70;0.70;;;;;;;12.92;84.83;96089.53;4361688;32;20184;-59
2023/09/25 05:29:36;;;;;;;1.27;0.87;;;;;;;13.15;84.63;96081.75;4384180;32;20223;-59
2023/09/25 05:32:04;;;;;;;0.80;0.80;;;;;;;13.02;83.27;96081.41;4377091;32;20233;-60
2023/09/25 05:34:30;;;;;;;0.60;0.60;;;;;;;13.13;84.61;96079.38;4375522;32;20208;-60
2023/09/25 05:36:56;;;;;;;11.60;1.47;;;;;;;13.19;85.83;96069.47;4362896;32;20188;-59
2023/09/25 05:39:24;;;;;;;0.83;0.83;;;;;;;13.22;86.48;96079.56;4376456;32;20205;-60
2023/09/25 05:41:49;;;;;;;1.17;1.17;;;;;;;13.07;86.98;96085.88;4377065;32;20206;-60
2023/09/25 05:44:15;;;;;;;1.43;1.33;;;;;;;13.46;88.78;96080.22;4384930;32;20229;-59
2023/09/25 05:46:41;;;;;;;0.50;0.50;;;;;;;13.16;87.26;96078.81;4371223;32;20177;-60
2023/09/25 05:49:07;;;;;;;1.13;1.13;;;;;;;13.23;87.50;96084.59;4386769;32;20188;-60
2023/09/25 05:51:32;;;;;;;0.97;0.97;;;;;;;13.48;89.39;96083.37;4372320;32;20192;-60
2023/09/25 05:53:57;;;;;;;0.70;0.70;;;;;;;13.58;88.51;96085.88;4376925;32;20222;-60
2023/09/25 05:56:23;;;;;;;0.53;0.53;;;;;;;13.68;88.80;96072.38;4364641;32;20211;-60
2023/09/25 05:58:48;;;;;;;1.73;1.20;;;;;;;13.76;88.34;96078.88;4378239;32;20185;-60
2023/09/25 06:01:14;;;;;;;0.80;0.80;;;;;;;13.71;87.98;96077.13;4370142;32;20195;-60
2023/09/25 06:03:39;;;;;;;2.07;1.57;;;;;;;13.86;87.95;96081.38;4363980;32;20264;-60
2023/09/25 06:06:05;;;;;;;0.90;0.90;;;;;;;13.72;87.18;96083.22;4355881;32;20225;-60
2023/09/25 06:08:30;;;;;;;0.80;0.80;;;;;;;13.81;87.64;96081.47;4379884;32;20199;-60
2023/09/25 06:11:02;;;;;;;1.10;1.07;;;;;;;13.77;86.99;96086.59;4364235;32;20219;-60
2023/09/25 06:13:30;;;;;;;1.13;1.13;;;;;;;13.65;86.94;96083.63;4364526;32;20227;-59
2023/09/25 06:15:55;;;;;;;1.17;1.07;;;;;;;13.70;86.37;96090.75;4377524;32;20225;-60
2023/09/25 06:18:21;;;;;;;3.13;1.23;;;;;;;13.64;87.73;96087.38;4359605;32;20185;-57
2023/09/25 06:20:48;;;;;;;0.60;0.60;;;;;;;13.90;87.23;96093.06;4375501;32;20207;-60
2023/09/25 06:23:14;;;;;;;1.23;0.97;;;;;;;13.95;87.24;96090.25;4364697;32;20177;-60
2023/09/25 06:25:41;;;;;;;0.77;0.77;;;;;;;14.13;87.92;96093.97;4364035;32;20177;-60
2023/09/25 06:28:08;;;;;;;0.57;0.57;;;;;;;14.04;86.94;96090.37;4364051;32;20232;-60
2023/09/25 06:30:34;;;;;;;3.20;1.07;;;;;;;14.10;87.60;96094.53;4363717;32;20192;-60
2023/09/25 06:32:59;;;;;;;0.53;0.53;;;;;;;14.12;86.23;96096.91;4379695;32;20238;-59
2023/09/25 06:35:25;;;;;;;1.00;1.00;;;;;;;14.20;87.67;96110.34;4374088;32;20180;-59
2023/09/25 06:37:51;;;;;;;0.47;0.47;;;;;;;14.14;86.11;96108.84;4376357;32;20241;-61
2023/09/25 06:40:19;;;;;;;1.20;1.20;;;;;;;14.16;86.26;96108.56;4375159;32;20164;-60
2023/09/25 06:42:44;;;;;;;1.37;1.23;;;;;;;14.17;86.00;96110.94;4376447;32;20177;-61
2023/09/25 06:45:10;;;;;;;1.07;1.07;;;;;;;14.13;86.23;96109.97;4374910;32;20192;-60
2023/09/25 06:47:35;;;;;;;0.73;0.73;;;;;;;13.90;85.45;96110.94;4362340;32;20197;-60
2023/09/25 06:50:01;;;;;;;0.60;0.60;;;;;;;13.94;86.79;96106.56;4377504;32;20173;-61
2023/09/25 06:52:26;;;;;;;0.53;0.53;;;;;;;14.27;87.40;96109.97;4375458;32;20172;-61
2023/09/25 06:54:51;;;;;;;0.87;0.87;;;;;;;14.24;84.75;96105.22;4376248;32;20238;-60
2023/09/25 06:57:17;;;;;;;0.73;0.73;;;;;;;14.34;85.39;96111.13;4365665;32;20295;-60
2023/09/25 06:59:42;;;;;;;20.77;2.87;;;;;;;14.12;82.94;96103.03;4377399;32;20215;-59
2023/09/25 07:02:07;;;;;;;4.17;1.63;;;;;;;14.38;88.38;96103.31;4375767;32;20172;-58
2023/09/25 07:04:33;;;;;;;0.57;0.57;;;;;;;14.90;91.65;96093.97;4373977;32;20193;-61
2023/09/25 07:06:58;;;;;;;1.30;0.80;;;;;;;14.54;80.48;96098.50;4371781;32;20247;-59
2023/09/25 07:09:23;;;;;;;0.70;0.70;;;;;;;15.26;85.04;96101.16;4378440;32;20189;-59
2023/09/25 07:11:49;;;;;;;0.70;0.70;;;;;;;15.25;81.57;96105.72;4375512;32;20177;-56
2023/09/25 07:14:14;;;;;;;1.13;0.83;;;;;;;15.81;85.25;96105.16;4375483;32;20219;-57
2023/09/25 07:16:40;;;;;;;0.93;0.93;;;;;;;15.86;82.27;96108.81;4375865;32;20227;-57
2023/09/25 07:19:08;;;;;;;1.53;1.37;;;;;;;15.05;74.40;96108.88;4364100;32;20224;-58
2023/09/25 07:21:35;;;;;;;5.20;0.97;;;;;;;15.24;76.98;96108.69;4371978;32;20212;-57
2023/09/25 07:24:01;;;;;;;0.60;0.60;;;;;;;15.34;77.64;96119.97;4367626;32;20203;-58
2023/09/25 07:26:26;;;;;;;1.70;0.77;;;;;;;15.74;83.24;96117.41;4367517;32;20185;-59
2023/09/25 07:28:51;;;;;;;1.03;0.93;;;;;;;15.54;75.83;96115.22;4359261;32;20181;-60
2023/09/25 07:31:22;;;;;;;0.73;0.73;;;;;;;15.38;73.21;96120.91;4363213;32;20244;-59
2023/09/25 07:33:48;;;;;;;1.50;1.40;;;;;;;14.76;74.49;96119.91;4365463;32;20240;-61
2023/09/25 07:36:18;;;;;;;1.17;1.07;;;;;;;14.50;75.13;96124.22;4378395;32;20256;-61
2023/09/25 07:38:44;;;;;;;1.30;1.23;;;;;;;14.48;75.73;96118.38;4379870;32;20191;-61
2023/09/25 07:41:12;;;;;;;1.33;1.20;;;;;;;14.21;77.30;96127.94;4369695;32;20195;-62
2023/09/25 07:43:38;;;;;;;0.87;0.87;;;;;;;14.26;77.62;96127.84;4379678;32;20204;-61
2023/09/25 07:46:03;;;;;;;0.30;0.30;;;;;;;14.13;77.76;96133.19;4375432;32;20185;-62
2023/09/25 07:48:31;;;;;;;0.53;0.53;;;;;;;14.11;77.46;96130.81;4382840;32;20276;-62
2023/09/25 07:50:58;;;;;;;1.07;0.50;;;;;;;14.13;76.71;96127.84;4362267;32;20222;-62
2023/09/25 07:53:24;;;;;;;0.20;0.20;;;;;;;14.00;76.66;96124.06;4376188;32;20314;-62
2023/09/25 07:55:51;;;;;;;0.90;0.73;;;;;;;13.92;76.81;96128.22;4377091;32;20204;-62
2023/09/25 07:58:16;;;;;;;0.80;0.80;;;;;;;13.96;76.53;96131.06;4379942;32;20180;-62
2023/09/25 08:00:44;;;;;;;0.77;0.77;;;;;;;13.80;76.98;96132.44;4379535;32;20243;-62
2023/09/25 08:03:14;;;;;;;0.70;0.43;;;;;;;13.93;76.79;96135.13;4386592;32;20192;-62
2023/09/25 08:05:40;;;;;;;0.60;0.60;;;;;;;13.96;76.51;96137.19;4382905;32;20215;-60
2023/09/25 08:08:05;;;;;;;0.50;0.50;;;;;;;13.92;76.51;96135.44;4378246;32;20180;-61
2023/09/25 08:10:33;;;;;;;1.03;1.03;;;;;;;14.00;76.00;96137.41;4381244;32;20200;-61
2023/09/25 08:12:58;;;;;;;0.30;0.30;;;;;;;14.09;75.85;96133.78;4371875;32;20195;-62
2023/09/25 08:15:24;;;;;;;0.67;0.67;;;;;;;13.98;76.25;96143.03;4378553;32;20259;-60
2023/09/25 08:17:49;;;;;;;4.80;1.30;;;;;;;14.19;75.82;96138.13;4379044;32;20212;-62
2023/09/25 08:20:20;;;;;;;1.03;1.03;;;;;;;14.20;76.26;96145.03;4374337;32;20252;-61
2023/09/25 08:22:46;;;;;;;1.40;1.30;;;;;;;14.28;75.58;96139.03;4374473;32;20195;-61
2023/09/25 08:25:12;;;;;;;0.90;0.90;;;;;;;14.14;74.85;96132.88;4363082;32;20195;-61
2023/09/25 08:27:39;;;;;;;0.30;0.30;;;;;;;14.27;74.21;96137.44;4375921;32;20232;-62
2023/09/25 08:30:05;;;;;;;0.60;0.60;;;;;;;14.36;74.30;96129.50;4360364;32;20181;-61
2023/09/25 08:32:31;;;;;;;1.20;0.60;;;;;;;14.41;73.38;96132.91;4378371;32;20188;-61
2023/09/25 08:34:57;;;;;;;0.97;0.97;;;;;;;14.44;73.58;96131.53;4376490;32;20185;-62
2023/09/25 08:37:22;;;;;;;0.47;0.47;;;;;;;14.53;73.02;96129.75;4375782;32;20181;-61
2023/09/25 08:39:47;;;;;;;0.40;0.40;;;;;;;14.53;73.43;96129.75;4367423;32;20201;-60
2023/09/25 08:42:13;;;;;;;0.20;0.20;;;;;;;14.61;72.87;96136.25;4375374;32;20184;-61
2023/09/25 08:44:39;;;;;;;0.37;0.37;;;;;;;14.65;71.90;96138.03;4377567;32;20203;-61
2023/09/25 08:47:04;;;;;;;0.50;0.50;;;;;;;14.69;72.67;96132.91;4369936;32;20206;-61
2023/09/25 08:49:32;;;;;;;3.30;1.00;;;;;;;14.63;73.57;96132.22;4390200;32;20184;-61
2023/09/25 08:51:59;;;;;;;0.40;0.40;;;;;;;14.71;73.13;96136.87;4365243;32;20189;-61
2023/09/25 08:54:24;;;;;;;0.27;0.27;;;;;;;14.74;72.69;96130.94;4368188;32;20186;-60
2023/09/25 08:56:50;;;;;;;0.23;0.23;;;;;;;15.48;81.59;96123.34;4373498;32;20312;-60
2023/09/25 08:59:15;;;;;;;0.83;0.83;;;;;;;16.26;77.17;96121.13;4355916;32;20204;-61
2023/09/25 09:01:42;;;;;;;1.07;1.07;;;;;;;16.93;67.80;96128.09;4371187;32;20196;-62
2023/09/25 09:04:07;;;;;;;0.20;0.20;;;;;;;16.66;68.47;96124.59;4364097;32;20189;-61
2023/09/25 09:06:32;;;;;;;0.20;0.20;;;;;;;16.46;67.79;96130.50;4380079;32;20202;-62
2023/09/25 09:08:58;;;;;;;0.60;0.60;;;;;;;16.23;68.35;96119.06;4381967;32;20205;-62
2023/09/25 09:11:23;;;;;;;0.30;0.30;;;;;;;16.06;69.49;96119.00;4364312;32;20188;-62
2023/09/25 09:13:49;;;;;;;0.37;0.37;;;;;;;16.02;69.43;96120.69;4379750;32;20189;-62
2023/09/25 09:16:19;;;;;;;0.80;0.60;;;;;;;15.96;69.77;96116.59;4377505;32;20218;-62
2023/09/25 09:18:45;;;;;;;0.27;0.27;;;;;;;15.90;70.24;96112.47;4377018;32;20196;-62
2023/09/25 09:21:26;;;;;;;0.80;0.80;;;;;;;16.01;70.40;96113.75;4376734;32;20204;-62
2023/09/25 09:23:54;;;;;;;0.50;0.50;;;;;;;16.02;69.47;96116.13;4374333;32;20196;-61
2023/09/25 09:26:19;;;;;;;0.57;0.57;;;;;;;16.08;69.37;96114.91;4361672;32;20230;-61
2023/09/25 09:28:46;;;;;;;0.70;0.70;;;;;;;16.26;67.39;96114.97;4380000;32;20224;-61
2023/09/25 09:31:14;;;;;;;0.43;0.43;;;;;;;16.19;67.40;96114.66;4373275;32;20189;-61
2023/09/25 09:33:43;;;;;;;0.60;0.60;;;;;;;16.17;68.22;96114.97;4383468;32;20270;-62
2023/09/25 09:36:10;;;;;;;0.40;0.40;;;;;;;16.17;69.11;96114.97;4378238;32;20219;-62
2023/09/25 09:38:36;;;;;;;0.40;0.40;;;;;;;16.24;68.31;96117.16;4375069;32;20199;-62
2023/09/25 09:41:03;;;;;;;0.30;0.30;;;;;;;16.20;68.35;96125.06;4379484;32;20211;-62
2023/09/25 09:43:29;;;;;;;0.50;0.50;;;;;;;16.21;68.79;96112.47;4379554;32;20219;-61
2023/09/25 09:45:55;;;;;;;1.40;0.60;;;;;;;16.26;68.87;96112.31;4378719;32;20185;-62
2023/09/25 09:48:22;;;;;;;0.50;0.50;;;;;;;16.47;67.86;96111.44;4376251;32;20168;-62
2023/09/25 09:50:49;;;;;;;0.50;0.50;;;;;;;16.42;68.70;96105.41;4359568;32;20240;-61
2023/09/25 09:53:17;;;;;;;1.60;0.93;;;;;;;16.42;67.39;96114.25;4361879;32;20192;-62
2023/09/25 09:55:44;;;;;;;0.60;0.60;;;;;;;16.49;67.29;96100.41;4356565;32;20201;-62
2023/09/25 09:58:11;;;;;;;0.37;0.37;;;;;;;16.56;66.64;96103.44;4358066;32;20185;-62
2023/09/25 10:03:58;;;;;;;0.67;0.60;;;;;;;16.56;66.35;96100.75;4364734;32;20203;-61
2023/09/25 10:06:27;;;;;;;0.60;0.60;;;;;;;16.72;66.71;96101.91;4376503;32;20192;-62
2023/09/25 10:09:07;;;;;;;0.73;0.73;;;;;;;16.48;66.38;96102.28;4373892;32;20181;-61
2023/09/25 10:11:32;;;;;;;0.50;0.50;;;;;;;16.66;65.62;96097.78;4361123;32;20181;-62
2023/09/25 10:14:05;;;;;;;0.30;0.30;;;;;;;16.75;65.51;96100.50;4359101;32;20178;-61
2023/09/25 10:16:51;;;;;;;0.83;0.83;;;;;;;16.65;66.50;96106.94;4363829;32;20180;-61
2023/09/25 10:19:20;;;;;;;0.67;0.67;;;;;;;16.70;67.10;96089.91;4373946;32;20225;-61
2023/09/25 10:22:20;;;;;;;0.93;0.83;;;;;;;16.70;65.84;96088.03;4368189;32;20241;-61
2023/09/25 10:24:47;;;;;;;1.37;0.80;;;;;;;16.71;66.27;96080.78;4372400;32;20204;-61
2023/09/25 10:27:17;;;;;;;1.50;1.40;;;;;;;16.77;65.67;96079.53;4369340;32;20191;-61
2023/09/25 10:30:05;;;;;;;1.43;1.33;;;;;;;16.83;64.99;96078.28;4364533;32;20212;-61
2023/09/25 10:32:31;;;;;;;0.50;0.50;;;;;;;16.81;65.55;96077.81;4361482;32;20185;-62
2023/09/25 10:34:57;;;;;;;0.60;0.60;;;;;;;16.75;65.65;96069.13;4373748;32;20200;-62
2023/09/25 10:37:22;;;;;;;0.30;0.30;;;;;;;16.69;66.74;96070.38;4362557;32;20272;-62
2023/09/25 10:39:56;;;;;;;0.37;0.37;;;;;;;16.76;66.70;96072.59;4373896;32;20244;-61
2023/09/25 10:42:22;;;;;;;0.57;0.57;;;;;;;16.78;66.66;96073.06;4361530;32;20243;-61
2023/09/25 10:44:47;;;;;;;0.70;0.70;;;;;;;16.92;66.23;96075.59;4361983;32;20209;-62
2023/09/25 10:47:13;;;;;;;0.83;0.67;;;;;;;16.96;66.28;96074.66;4373036;32;20260;-61
2023/09/25 10:49:39;;;;;;;1.10;1.03;;;;;;;16.92;67.14;96065.66;4362034;32;20220;-61
2023/09/25 10:52:05;;;;;;;0.83;0.63;;;;;;;16.90;68.13;96070.56;4361866;32;20177;-61
2023/09/25 10:54:31;;;;;;;1.07;0.50;;;;;;;16.99;66.99;96073.25;4368923;32;20204;-61
2023/09/25 10:56:59;;;;;;;0.80;0.80;;;;;;;17.02;66.66;96076.09;4363083;32;20184;-61
2023/09/25 10:59:25;;;;;;;0.80;0.80;;;;;;;17.14;66.51;96076.25;4376433;32;20173;-62
2023/09/25 11:01:51;;;;;;;1.57;1.13;;;;;;;17.11;65.55;96071.50;4363155;32;20195;-61
2023/09/25 11:04:17;;;;;;;0.77;0.77;;;;;;;17.11;65.63;96081.44;4355792;32;20200;-62
2023/09/25 11:06:42;;;;;;;0.30;0.30;;;;;;;17.03;66.16;96077.66;4364260;32;20247;-61
2023/09/25 11:09:08;;;;;;;0.43;0.43;;;;;;;16.94;68.20;96076.88;4362536;32;20216;-61
2023/09/25 11:11:33;;;;;;;0.80;0.80;;;;;;;17.08;66.85;96065.97;4380743;32;20211;-62
2023/09/25 11:13:59;;;;;;;0.80;0.80;;;;;;;17.26;66.44;96062.19;4374353;32;20230;-61
2023/09/25 11:16:25;;;;;;;7.10;1.30;;;;;;;17.23;67.01;96054.78;4376679;32;20228;-61
2023/09/25 11:19:10;;;;;;;0.30;0.30;;;;;;;17.40;65.69;96065.50;4376487;32;20193;-62
2023/09/25 11:21:36;;;;;;;0.70;0.70;;;;;;;17.40;65.44;96067.37;4363236;32;20186;-62
2023/09/25 11:24:07;;;;;;;0.73;0.73;;;;;;;17.31;65.70;96062.03;4381572;32;20172;-61
2023/09/25 11:26:40;;;;;;;0.30;0.30;;;;;;;17.26;66.01;96061.37;4376575;32;20225;-61
2023/09/25 11:29:06;;;;;;;0.37;0.37;;;;;;;17.18;66.25;96055.72;4369441;32;20196;-60
2023/09/25 11:31:32;;;;;;;0.20;0.20;;;;;;;17.16;67.15;96067.87;4369890;32;20168;-61
2023/09/25 11:33:57;;;;;;;0.50;0.50;;;;;;;17.15;67.40;96059.03;4375664;32;20256;-60